sensor_id;sensor_type;location;lat;lon;timestamp;temperature;humidity
55795;DHT22;41716;51.910;4.430;2023-05-21T00:04:42;16.90;99.90
55795;DHT22;41716;51.910;4.430;2023-05-21T00:09:45;16.80;99.90
55795;DHT22;41716;51.910;4.430;2023-05-21T00:14:47;16.70;99.90
55795;DHT22;41716;51.910;4.430;2023-05-21T00:19:49;16.60;99.90
55795;DHT22;41716;51.910;4.430;2023-05-21T00:24:52;16.40;99.90
55795;DHT22;41716;51.910;4.430;2023-05-21T00:29:54;16.60;99.90
55795;DHT22;41716;51.910;4.430;2023-05-21T00:34:56;16.40;99.90
55795;DHT22;41716;51.910;4.430;2023-05-21T00:39:59;16.30;99.90
55795;DHT22;41716;51.910;4.430;2023-05-21T00:45:01;16.50;99.90
55795;DHT22;41716;51.910;4.430;2023-05-21T00:50:04;16.40;99.90
55795;DHT22;41716;51.910;4.430;2023-05-21T00:55:08;16.00;99.90
55795;DHT22;41716;51.910;4.430;2023-05-21T01:00:12;16.30;99.90
55795;DHT22;41716;51.910;4.430;2023-05-21T01:05:14;16.10;99.90
55795;DHT22;41716;51.910;4.430;2023-05-21T01:10:18;16.20;99.90
55795;DHT22;41716;51.910;4.430;2023-05-21T01:15:19;16.10;99.90
55795;DHT22;41716;51.910;4.430;2023-05-21T01:20:22;15.80;99.90
55795;DHT22;41716;51.910;4.430;2023-05-21T01:25:26;16.00;99.90
55795;DHT22;41716;51.910;4.430;2023-05-21T01:30:27;16.00;99.90
55795;DHT22;41716;51.910;4.430;2023-05-21T01:35:32;15.60;99.90
55795;DHT22;41716;51.910;4.430;2023-05-21T01:40:40;15.60;99.90
55795;DHT22;41716;51.910;4.430;2023-05-21T01:45:46;16.00;99.90
55795;DHT22;41716;51.910;4.430;2023-05-21T01:50:49;16.00;99.90
55795;DHT22;41716;51.910;4.430;2023-05-21T01:55:53;15.40;99.90
55795;DHT22;41716;51.910;4.430;2023-05-21T02:00:55;15.70;99.90
55795;DHT22;41716;51.910;4.430;2023-05-21T02:05:57;15.80;99.90
55795;DHT22;41716;51.910;4.430;2023-05-21T02:11:00;16.20;99.90
55795;DHT22;41716;51.910;4.430;2023-05-21T02:16:02;15.70;99.90
55795;DHT22;41716;51.910;4.430;2023-05-21T02:21:03;16.20;99.90
55795;DHT22;41716;51.910;4.430;2023-05-21T02:26:07;15.90;99.90
55795;DHT22;41716;51.910;4.430;2023-05-21T02:31:08;16.20;99.90
55795;DHT22;41716;51.910;4.430;2023-05-21T02:36:11;15.80;99.90
55795;DHT22;41716;51.910;4.430;2023-05-21T02:41:16;16.00;99.90
55795;DHT22;41716;51.910;4.430;2023-05-21T02:46:17;15.50;99.90
55795;DHT22;41716;51.910;4.430;2023-05-21T02:51:19;15.40;99.90
55795;DHT22;41716;51.910;4.430;2023-05-21T02:56:22;16.00;99.90
55795;DHT22;41716;51.910;4.430;2023-05-21T03:01:24;15.50;99.90
55795;DHT22;41716;51.910;4.430;2023-05-21T03:06:26;16.00;99.90
55795;DHT22;41716;51.910;4.430;2023-05-21T03:11:29;15.80;99.90
55795;DHT22;41716;51.910;4.430;2023-05-21T03:16:31;15.90;99.90
55795;DHT22;41716;51.910;4.430;2023-05-21T03:21:35;16.00;99.90
55795;DHT22;41716;51.910;4.430;2023-05-21T03:26:38;16.30;99.90
55795;DHT22;41716;51.910;4.430;2023-05-21T03:31:39;15.90;99.90
55795;DHT22;41716;51.910;4.430;2023-05-21T03:36:41;16.20;99.90
55795;DHT22;41716;51.910;4.430;2023-05-21T03:41:44;16.00;99.90
55795;DHT22;41716;51.910;4.430;2023-05-21T03:46:46;15.80;99.90
55795;DHT22;41716;51.910;4.430;2023-05-21T03:51:48;16.50;99.90
55795;DHT22;41716;51.910;4.430;2023-05-21T03:56:51;15.70;99.90
55795;DHT22;41716;51.910;4.430;2023-05-21T04:01:53;16.00;99.90
55795;DHT22;41716;51.910;4.430;2023-05-21T04:06:55;16.20;99.90
55795;DHT22;41716;51.910;4.430;2023-05-21T04:11:58;16.30;99.90
55795;DHT22;41716;51.910;4.430;2023-05-21T04:16:59;15.90;99.90
55795;DHT22;41716;51.910;4.430;2023-05-21T04:22:04;15.60;99.90
55795;DHT22;41716;51.910;4.430;2023-05-21T04:27:07;16.60;99.90
55795;DHT22;41716;51.910;4.430;2023-05-21T04:32:09;15.90;99.90
55795;DHT22;41716;51.910;4.430;2023-05-21T04:37:14;16.60;99.90
55795;DHT22;41716;51.910;4.430;2023-05-21T04:42:18;16.50;99.90
55795;DHT22;41716;51.910;4.430;2023-05-21T04:47:23;16.30;99.90
55795;DHT22;41716;51.910;4.430;2023-05-21T04:52:25;15.90;99.90
55795;DHT22;41716;51.910;4.430;2023-05-21T04:57:28;15.80;99.90
55795;DHT22;41716;51.910;4.430;2023-05-21T05:02:29;16.70;99.90
55795;DHT22;41716;51.910;4.430;2023-05-21T05:07:31;15.90;99.90
55795;DHT22;41716;51.910;4.430;2023-05-21T05:12:34;16.80;99.90
55795;DHT22;41716;51.910;4.430;2023-05-21T05:17:36;16.20;99.90
55795;DHT22;41716;51.910;4.430;2023-05-21T05:22:39;15.90;99.90
55795;DHT22;41716;51.910;4.430;2023-05-21T05:27:42;16.20;99.90
55795;DHT22;41716;51.910;4.430;2023-05-21T05:32:44;16.20;99.90
55795;DHT22;41716;51.910;4.430;2023-05-21T05:37:46;16.10;99.90
55795;DHT22;41716;51.910;4.430;2023-05-21T05:42:49;16.70;99.90
55795;DHT22;41716;51.910;4.430;2023-05-21T05:47:52;16.10;99.90
55795;DHT22;41716;51.910;4.430;2023-05-21T05:52:53;16.80;99.90
55795;DHT22;41716;51.910;4.430;2023-05-21T05:57:56;17.00;99.90
55795;DHT22;41716;51.910;4.430;2023-05-21T06:02:58;16.50;99.90
55795;DHT22;41716;51.910;4.430;2023-05-21T06:08:00;17.10;99.90
55795;DHT22;41716;51.910;4.430;2023-05-21T06:13:03;17.20;99.90
55795;DHT22;41716;51.910;4.430;2023-05-21T06:18:04;16.80;99.90
55795;DHT22;41716;51.910;4.430;2023-05-21T06:23:06;16.90;99.90
55795;DHT22;41716;51.910;4.430;2023-05-21T06:28:10;17.70;99.90
55795;DHT22;41716;51.910;4.430;2023-05-21T06:33:12;17.20;99.90
55795;DHT22;41716;51.910;4.430;2023-05-21T06:38:13;17.30;99.90
55795;DHT22;41716;51.910;4.430;2023-05-21T06:43:16;18.00;99.90
55795;DHT22;41716;51.910;4.430;2023-05-21T06:48:18;17.90;99.90
55795;DHT22;41716;51.910;4.430;2023-05-21T06:53:20;18.40;99.90
55795;DHT22;41716;51.910;4.430;2023-05-21T06:58:23;18.00;99.90
55795;DHT22;41716;51.910;4.430;2023-05-21T07:03:30;18.30;99.90
55795;DHT22;41716;51.910;4.430;2023-05-21T07:08:32;18.70;99.90
55795;DHT22;41716;51.910;4.430;2023-05-21T07:13:35;18.80;99.90
55795;DHT22;41716;51.910;4.430;2023-05-21T07:18:37;18.80;99.90
55795;DHT22;41716;51.910;4.430;2023-05-21T07:23:39;18.70;99.90
55795;DHT22;41716;51.910;4.430;2023-05-21T07:28:42;19.10;99.90
55795;DHT22;41716;51.910;4.430;2023-05-21T07:33:44;18.90;99.90
55795;DHT22;41716;51.910;4.430;2023-05-21T07:38:46;19.00;99.90
55795;DHT22;41716;51.910;4.430;2023-05-21T07:43:49;19.10;99.90
55795;DHT22;41716;51.910;4.430;2023-05-21T07:48:51;19.10;99.90
55795;DHT22;41716;51.910;4.430;2023-05-21T07:53:52;19.10;99.90
55795;DHT22;41716;51.910;4.430;2023-05-21T07:58:55;19.30;99.90
55795;DHT22;41716;51.910;4.430;2023-05-21T08:03:57;19.70;99.90
55795;DHT22;41716;51.910;4.430;2023-05-21T08:09:01;19.70;99.90
55795;DHT22;41716;51.910;4.430;2023-05-21T08:14:04;19.50;99.90
55795;DHT22;41716;51.910;4.430;2023-05-21T08:19:06;19.60;99.90
55795;DHT22;41716;51.910;4.430;2023-05-21T08:24:10;19.50;99.90
55795;DHT22;41716;51.910;4.430;2023-05-21T08:29:13;19.50;99.90
55795;DHT22;41716;51.910;4.430;2023-05-21T08:34:15;19.70;99.90
55795;DHT22;41716;51.910;4.430;2023-05-21T08:39:17;19.80;99.90
55795;DHT22;41716;51.910;4.430;2023-05-21T08:44:23;20.30;99.90
55795;DHT22;41716;51.910;4.430;2023-05-21T08:49:29;20.60;99.90
55795;DHT22;41716;51.910;4.430;2023-05-21T08:54:35;20.70;99.90
55795;DHT22;41716;51.910;4.430;2023-05-21T08:59:40;20.60;99.90
55795;DHT22;41716;51.910;4.430;2023-05-21T09:04:44;20.60;99.90
55795;DHT22;41716;51.910;4.430;2023-05-21T09:09:54;20.80;99.90
55795;DHT22;41716;51.910;4.430;2023-05-21T09:14:58;20.90;99.90
55795;DHT22;41716;51.910;4.430;2023-05-21T09:20:05;21.10;99.90
55795;DHT22;41716;51.910;4.430;2023-05-21T09:25:09;21.40;99.90
55795;DHT22;41716;51.910;4.430;2023-05-21T09:30:14;21.70;99.90
55795;DHT22;41716;51.910;4.430;2023-05-21T09:35:16;21.80;99.90
55795;DHT22;41716;51.910;4.430;2023-05-21T09:40:19;21.80;99.90
55795;DHT22;41716;51.910;4.430;2023-05-21T09:45:24;22.20;99.90
55795;DHT22;41716;51.910;4.430;2023-05-21T09:50:26;22.80;99.90
55795;DHT22;41716;51.910;4.430;2023-05-21T09:55:28;23.30;99.90
55795;DHT22;41716;51.910;4.430;2023-05-21T10:00:40;23.50;99.90
55795;DHT22;41716;51.910;4.430;2023-05-21T10:05:42;24.00;99.90
55795;DHT22;41716;51.910;4.430;2023-05-21T10:10:45;24.50;99.90
55795;DHT22;41716;51.910;4.430;2023-05-21T10:15:52;24.40;99.90
55795;DHT22;41716;51.910;4.430;2023-05-21T10:20:55;25.00;99.90
55795;DHT22;41716;51.910;4.430;2023-05-21T10:25:57;25.40;99.90
55795;DHT22;41716;51.910;4.430;2023-05-21T10:31:02;25.70;99.90
55795;DHT22;41716;51.910;4.430;2023-05-21T10:36:05;25.90;99.90
55795;DHT22;41716;51.910;4.430;2023-05-21T10:41:07;26.20;99.90
55795;DHT22;41716;51.910;4.430;2023-05-21T10:46:54;26.60;99.90
55795;DHT22;41716;51.910;4.430;2023-05-21T10:52:06;27.10;99.90
55795;DHT22;41716;51.910;4.430;2023-05-21T10:57:17;27.10;99.90
55795;DHT22;41716;51.910;4.430;2023-05-21T11:02:25;27.40;99.90
55795;DHT22;41716;51.910;4.430;2023-05-21T11:07:51;26.90;99.90
55795;DHT22;41716;51.910;4.430;2023-05-21T11:13:07;27.00;99.90
55795;DHT22;41716;51.910;4.430;2023-05-21T11:18:13;27.40;99.90
55795;DHT22;41716;51.910;4.430;2023-05-21T11:23:15;27.80;99.90
55795;DHT22;41716;51.910;4.430;2023-05-21T11:28:31;27.30;99.90
55795;DHT22;41716;51.910;4.430;2023-05-21T11:33:34;26.90;99.90
55795;DHT22;41716;51.910;4.430;2023-05-21T11:38:36;27.00;99.90
55795;DHT22;41716;51.910;4.430;2023-05-21T11:43:39;27.60;99.90
55795;DHT22;41716;51.910;4.430;2023-05-21T11:48:43;28.00;99.90
55795;DHT22;41716;51.910;4.430;2023-05-21T11:53:45;28.40;99.90
55795;DHT22;41716;51.910;4.430;2023-05-21T11:58:48;28.50;99.90
55795;DHT22;41716;51.910;4.430;2023-05-21T12:03:51;28.50;99.90
55795;DHT22;41716;51.910;4.430;2023-05-21T12:08:53;28.40;99.90
55795;DHT22;41716;51.910;4.430;2023-05-21T12:13:57;28.70;99.90
55795;DHT22;41716;51.910;4.430;2023-05-21T12:19:01;29.00;99.90
55795;DHT22;41716;51.910;4.430;2023-05-21T12:24:03;28.70;99.90
55795;DHT22;41716;51.910;4.430;2023-05-21T12:29:05;28.80;99.90
55795;DHT22;41716;51.910;4.430;2023-05-21T12:34:08;28.80;99.90
55795;DHT22;41716;51.910;4.430;2023-05-21T12:39:10;28.90;99.90
55795;DHT22;41716;51.910;4.430;2023-05-21T12:44:12;29.70;99.90
55795;DHT22;41716;51.910;4.430;2023-05-21T12:49:37;29.20;99.90
55795;DHT22;41716;51.910;4.430;2023-05-21T12:54:41;29.50;99.90
55795;DHT22;41716;51.910;4.430;2023-05-21T12:59:45;28.90;99.90
55795;DHT22;41716;51.910;4.430;2023-05-21T13:04:52;29.30;99.90
55795;DHT22;41716;51.910;4.430;2023-05-21T13:09:55;28.60;99.90
55795;DHT22;41716;51.910;4.430;2023-05-21T13:14:58;28.30;99.90
55795;DHT22;41716;51.910;4.430;2023-05-21T13:20:06;28.30;99.90
55795;DHT22;41716;51.910;4.430;2023-05-21T13:25:09;28.60;99.90
55795;DHT22;41716;51.910;4.430;2023-05-21T13:30:11;28.60;99.90
55795;DHT22;41716;51.910;4.430;2023-05-21T13:35:14;28.60;99.90
55795;DHT22;41716;51.910;4.430;2023-05-21T13:40:16;28.80;99.90
55795;DHT22;41716;51.910;4.430;2023-05-21T13:45:19;29.00;99.90
55795;DHT22;41716;51.910;4.430;2023-05-21T13:50:22;28.90;99.90
55795;DHT22;41716;51.910;4.430;2023-05-21T13:55:24;28.50;99.90
55795;DHT22;41716;51.910;4.430;2023-05-21T14:00:25;28.50;99.90
55795;DHT22;41716;51.910;4.430;2023-05-21T14:05:28;28.30;99.90
55795;DHT22;41716;51.910;4.430;2023-05-21T14:10:30;28.50;99.90
55795;DHT22;41716;51.910;4.430;2023-05-21T14:15:32;28.20;99.90
55795;DHT22;41716;51.910;4.430;2023-05-21T14:20:35;28.20;99.90
55795;DHT22;41716;51.910;4.430;2023-05-21T14:25:37;28.10;99.90
55795;DHT22;41716;51.910;4.430;2023-05-21T14:30:38;27.80;99.90
55795;DHT22;41716;51.910;4.430;2023-05-21T14:35:41;27.80;99.90
55795;DHT22;41716;51.910;4.430;2023-05-21T14:40:44;27.80;99.90
55795;DHT22;41716;51.910;4.430;2023-05-21T14:45:46;27.10;99.90
55795;DHT22;41716;51.910;4.430;2023-05-21T14:50:49;27.00;99.90
55795;DHT22;41716;51.910;4.430;2023-05-21T14:55:51;26.90;99.90
55795;DHT22;41716;51.910;4.430;2023-05-21T15:00:53;26.80;99.90
55795;DHT22;41716;51.910;4.430;2023-05-21T15:05:56;27.00;99.90
55795;DHT22;41716;51.910;4.430;2023-05-21T15:10:58;26.30;99.90
55795;DHT22;41716;51.910;4.430;2023-05-21T15:16:00;26.70;99.90
55795;DHT22;41716;51.910;4.430;2023-05-21T15:21:03;26.90;99.90
55795;DHT22;41716;51.910;4.430;2023-05-21T15:26:05;26.90;99.90
55795;DHT22;41716;51.910;4.430;2023-05-21T15:31:08;26.50;99.90
55795;DHT22;41716;51.910;4.430;2023-05-21T15:36:11;26.20;99.90
55795;DHT22;41716;51.910;4.430;2023-05-21T15:41:13;26.50;99.90
55795;DHT22;41716;51.910;4.430;2023-05-21T15:46:14;26.30;99.90
55795;DHT22;41716;51.910;4.430;2023-05-21T15:51:18;26.30;99.90
55795;DHT22;41716;51.910;4.430;2023-05-21T15:56:19;26.30;99.90
55795;DHT22;41716;51.910;4.430;2023-05-21T16:01:21;26.00;99.90
55795;DHT22;41716;51.910;4.430;2023-05-21T16:06:24;26.00;99.90
55795;DHT22;41716;51.910;4.430;2023-05-21T16:11:27;25.60;99.90
55795;DHT22;41716;51.910;4.430;2023-05-21T16:16:29;25.30;99.90
55795;DHT22;41716;51.910;4.430;2023-05-21T16:21:32;25.40;99.90
55795;DHT22;41716;51.910;4.430;2023-05-21T16:26:34;25.30;99.90
55795;DHT22;41716;51.910;4.430;2023-05-21T16:31:35;24.70;99.90
55795;DHT22;41716;51.910;4.430;2023-05-21T16:36:39;25.10;99.90
55795;DHT22;41716;51.910;4.430;2023-05-21T16:41:42;25.10;99.90
55795;DHT22;41716;51.910;4.430;2023-05-21T16:46:44;24.90;99.90
55795;DHT22;41716;51.910;4.430;2023-05-21T16:51:47;24.30;99.90
55795;DHT22;41716;51.910;4.430;2023-05-21T16:56:48;24.40;99.90
55795;DHT22;41716;51.910;4.430;2023-05-21T17:01:50;24.30;99.90
55795;DHT22;41716;51.910;4.430;2023-05-21T17:06:53;24.50;99.90
55795;DHT22;41716;51.910;4.430;2023-05-21T17:11:55;23.80;99.90
55795;DHT22;41716;51.910;4.430;2023-05-21T17:16:57;23.50;99.90
55795;DHT22;41716;51.910;4.430;2023-05-21T17:22:00;24.30;99.90
55795;DHT22;41716;51.910;4.430;2023-05-21T17:27:01;23.80;99.90
55795;DHT22;41716;51.910;4.430;2023-05-21T17:32:04;23.30;99.90
55795;DHT22;41716;51.910;4.430;2023-05-21T17:37:07;23.10;99.90
55795;DHT22;41716;51.910;4.430;2023-05-21T17:42:09;22.80;99.90
55795;DHT22;41716;51.910;4.430;2023-05-21T17:47:10;22.70;99.90
55795;DHT22;41716;51.910;4.430;2023-05-21T17:52:13;22.00;99.90
55795;DHT22;41716;51.910;4.430;2023-05-21T17:57:15;22.50;99.90
55795;DHT22;41716;51.910;4.430;2023-05-21T18:02:19;22.60;99.90
55795;DHT22;41716;51.910;4.430;2023-05-21T18:07:22;22.10;99.90
55795;DHT22;41716;51.910;4.430;2023-05-21T18:12:23;22.40;99.90
55795;DHT22;41716;51.910;4.430;2023-05-21T18:17:25;22.50;99.90
55795;DHT22;41716;51.910;4.430;2023-05-21T18:22:28;21.90;99.90
55795;DHT22;41716;51.910;4.430;2023-05-21T18:27:30;22.30;99.90
55795;DHT22;41716;51.910;4.430;2023-05-21T18:32:32;21.70;99.90
55795;DHT22;41716;51.910;4.430;2023-05-21T18:37:35;21.00;99.90
55795;DHT22;41716;51.910;4.430;2023-05-21T18:42:37;20.90;99.90
55795;DHT22;41716;51.910;4.430;2023-05-21T18:47:39;20.90;99.90
55795;DHT22;41716;51.910;4.430;2023-05-21T18:52:43;20.70;99.90
55795;DHT22;41716;51.910;4.430;2023-05-21T18:57:45;20.40;99.90
55795;DHT22;41716;51.910;4.430;2023-05-21T19:02:47;19.90;99.90
55795;DHT22;41716;51.910;4.430;2023-05-21T19:07:50;20.20;99.90
55795;DHT22;41716;51.910;4.430;2023-05-21T19:12:52;20.20;99.90
55795;DHT22;41716;51.910;4.430;2023-05-21T19:17:54;20.30;99.90
55795;DHT22;41716;51.910;4.430;2023-05-21T19:22:57;19.50;99.90
55795;DHT22;41716;51.910;4.430;2023-05-21T19:28:00;20.00;99.90
55795;DHT22;41716;51.910;4.430;2023-05-21T19:33:02;20.10;99.90
55795;DHT22;41716;51.910;4.430;2023-05-21T19:38:05;19.50;99.90
55795;DHT22;41716;51.910;4.430;2023-05-21T19:43:07;19.50;99.90
55795;DHT22;41716;51.910;4.430;2023-05-21T19:48:09;19.50;99.90
55795;DHT22;41716;51.910;4.430;2023-05-21T19:53:12;19.60;99.90
55795;DHT22;41716;51.910;4.430;2023-05-21T19:58:14;19.40;99.90
55795;DHT22;41716;51.910;4.430;2023-05-21T20:03:18;18.70;99.90
55795;DHT22;41716;51.910;4.430;2023-05-21T20:08:21;18.40;99.90
55795;DHT22;41716;51.910;4.430;2023-05-21T20:13:23;18.70;99.90
55795;DHT22;41716;51.910;4.430;2023-05-21T20:18:25;18.50;99.90
55795;DHT22;41716;51.910;4.430;2023-05-21T20:23:28;18.20;99.90
55795;DHT22;41716;51.910;4.430;2023-05-21T20:28:30;18.20;99.90
55795;DHT22;41716;51.910;4.430;2023-05-21T20:33:32;18.20;99.90
55795;DHT22;41716;51.910;4.430;2023-05-21T20:38:35;18.10;99.90
55795;DHT22;41716;51.910;4.430;2023-05-21T20:43:37;18.00;99.90
55795;DHT22;41716;51.910;4.430;2023-05-21T20:48:39;18.10;99.90
55795;DHT22;41716;51.910;4.430;2023-05-21T20:53:42;17.30;99.90
55795;DHT22;41716;51.910;4.430;2023-05-21T20:58:44;17.10;99.90
55795;DHT22;41716;51.910;4.430;2023-05-21T21:03:45;17.60;99.90
55795;DHT22;41716;51.910;4.430;2023-05-21T21:08:48;17.10;99.90
55795;DHT22;41716;51.910;4.430;2023-05-21T21:13:50;17.60;99.90
55795;DHT22;41716;51.910;4.430;2023-05-21T21:18:52;17.30;99.90
55795;DHT22;41716;51.910;4.430;2023-05-21T21:23:55;17.40;99.90
55795;DHT22;41716;51.910;4.430;2023-05-21T21:28:57;17.60;99.90
55795;DHT22;41716;51.910;4.430;2023-05-21T21:33:58;17.20;99.90
55795;DHT22;41716;51.910;4.430;2023-05-21T21:39:02;16.90;99.90
55795;DHT22;41716;51.910;4.430;2023-05-21T21:44:03;17.10;99.90
55795;DHT22;41716;51.910;4.430;2023-05-21T21:49:05;17.40;99.90
55795;DHT22;41716;51.910;4.430;2023-05-21T21:54:08;16.80;99.90
55795;DHT22;41716;51.910;4.430;2023-05-21T21:59:10;17.20;99.90
55795;DHT22;41716;51.910;4.430;2023-05-21T22:04:12;17.60;99.90
55795;DHT22;41716;51.910;4.430;2023-05-21T22:09:15;17.90;99.90
55795;DHT22;41716;51.910;4.430;2023-05-21T22:14:17;17.00;99.90
55795;DHT22;41716;51.910;4.430;2023-05-21T22:19:19;16.80;99.90
55795;DHT22;41716;51.910;4.430;2023-05-21T22:24:23;17.30;99.90
55795;DHT22;41716;51.910;4.430;2023-05-21T22:29:25;16.70;99.90
55795;DHT22;41716;51.910;4.430;2023-05-21T22:34:27;17.00;99.90
55795;DHT22;41716;51.910;4.430;2023-05-21T22:39:30;16.40;99.90
55795;DHT22;41716;51.910;4.430;2023-05-21T22:44:32;15.80;99.90
55795;DHT22;41716;51.910;4.430;2023-05-21T22:49:33;16.10;99.90
55795;DHT22;41716;51.910;4.430;2023-05-21T22:54:38;16.20;99.90
55795;DHT22;41716;51.910;4.430;2023-05-21T22:59:40;17.10;99.90
55795;DHT22;41716;51.910;4.430;2023-05-21T23:04:42;16.90;99.90
55795;DHT22;41716;51.910;4.430;2023-05-21T23:09:45;15.60;99.90
55795;DHT22;41716;51.910;4.430;2023-05-21T23:14:47;16.30;99.90
55795;DHT22;41716;51.910;4.430;2023-05-21T23:19:48;15.40;99.90
55795;DHT22;41716;51.910;4.430;2023-05-21T23:24:53;17.20;99.90
55795;DHT22;41716;51.910;4.430;2023-05-21T23:29:55;16.70;99.90
55795;DHT22;41716;51.910;4.430;2023-05-21T23:34:57;16.70;99.90
55795;DHT22;41716;51.910;4.430;2023-05-21T23:40:00;17.20;99.90
55795;DHT22;41716;51.910;4.430;2023-05-21T23:45:02;15.70;99.90
55795;DHT22;41716;51.910;4.430;2023-05-21T23:50:05;14.70;99.90
55795;DHT22;41716;51.910;4.430;2023-05-21T23:55:09;14.60;99.90
